createdAt,value
2022-10-13T00:00:04.145Z,48.9
2022-10-13T00:01:04.133Z,48.9
2022-10-13T00:02:04.098Z,48.9
2022-10-13T00:03:04.082Z,49.0
2022-10-13T00:04:04.096Z,49.0
2022-10-13T00:05:04.116Z,49.0
2022-10-13T00:06:04.096Z,48.9
2022-10-13T00:07:04.080Z,49.0
2022-10-13T00:08:04.091Z,49.0
2022-10-13T00:09:04.093Z,49.0
2022-10-13T00:10:04.107Z,49.0
2022-10-13T00:11:04.083Z,49.0
2022-10-13T00:12:04.084Z,49.0
2022-10-13T00:13:04.087Z,49.0
2022-10-13T00:14:04.102Z,49.0
2022-10-13T00:15:04.104Z,49.0
2022-10-13T00:16:04.079Z,49.0
2022-10-13T00:17:04.161Z,49.0
2022-10-13T00:18:04.214Z,49.0
2022-10-13T00:19:04.091Z,49.1
2022-10-13T00:20:04.136Z,49.1
2022-10-13T00:21:05.875Z,49.1
2022-10-13T00:22:04.118Z,49.1
2022-10-13T00:23:04.083Z,49.1
2022-10-13T00:24:04.153Z,49.1
2022-10-13T00:25:04.093Z,49.1
2022-10-13T00:26:04.099Z,49.2
2022-10-13T00:27:04.086Z,49.1
2022-10-13T00:28:04.096Z,49.1
2022-10-13T00:29:04.171Z,49.2
2022-10-13T00:30:04.097Z,49.2
2022-10-13T00:31:04.093Z,49.1
2022-10-13T00:32:04.099Z,49.2
2022-10-13T00:33:04.089Z,49.2
2022-10-13T00:35:34.993Z,50.6
2022-10-13T00:36:03.699Z,49.6
2022-10-13T00:37:03.718Z,49.4
2022-10-13T00:38:03.717Z,49.4
2022-10-13T00:39:03.709Z,49.3
2022-10-13T00:40:03.722Z,49.3
2022-10-13T00:41:03.724Z,49.3
2022-10-13T00:42:03.710Z,49.3
2022-10-13T00:43:03.713Z,49.3
2022-10-13T00:44:03.707Z,49.3
2022-10-13T00:45:03.722Z,49.3
2022-10-13T00:46:03.714Z,49.4
2022-10-13T00:47:03.718Z,49.4
2022-10-13T00:48:03.716Z,49.3
2022-10-13T00:49:03.714Z,49.4
2022-10-13T00:50:03.855Z,49.4
2022-10-13T00:51:03.716Z,49.4
2022-10-13T00:52:03.726Z,49.4
2022-10-13T00:53:03.715Z,49.4
2022-10-13T00:54:03.714Z,49.4
2022-10-13T00:55:03.718Z,49.4
2022-10-13T00:56:03.709Z,49.4
2022-10-13T00:57:03.709Z,49.4
2022-10-13T00:58:05.424Z,49.4
2022-10-13T00:59:03.716Z,49.5
2022-10-13T01:00:03.785Z,49.5
2022-10-13T01:01:03.760Z,49.5
2022-10-13T01:02:03.714Z,49.5
2022-10-13T01:03:03.731Z,49.5
2022-10-13T01:04:03.751Z,49.5
2022-10-13T01:05:03.719Z,49.5
2022-10-13T01:06:03.734Z,49.5
2022-10-13T01:07:03.868Z,49.5
2022-10-13T01:08:03.713Z,49.5
2022-10-13T01:09:03.719Z,49.5
2022-10-13T01:10:03.744Z,49.5
2022-10-13T01:11:03.729Z,49.5
2022-10-13T01:12:03.720Z,49.5
2022-10-13T01:13:03.721Z,49.5
2022-10-13T01:14:03.798Z,49.5
2022-10-13T01:15:03.736Z,49.5
2022-10-13T01:16:03.728Z,49.5
2022-10-13T01:17:03.738Z,49.5
2022-10-13T01:18:03.747Z,49.6
2022-10-13T01:19:03.740Z,49.6
2022-10-13T01:20:03.721Z,49.6
2022-10-13T01:21:03.735Z,49.6
2022-10-13T01:22:03.730Z,49.6
2022-10-13T01:23:03.735Z,49.6
2022-10-13T01:24:03.738Z,49.6
2022-10-13T01:25:03.725Z,49.6
2022-10-13T01:26:03.722Z,49.6
2022-10-13T01:27:03.736Z,49.6
2022-10-13T01:28:03.718Z,49.6
2022-10-13T01:29:03.733Z,49.6
2022-10-13T01:30:03.727Z,49.6
2022-10-13T01:31:03.735Z,49.6
2022-10-13T01:32:03.734Z,49.6
2022-10-13T01:33:03.727Z,49.6
2022-10-13T01:34:03.758Z,49.6
2022-10-13T01:35:03.735Z,49.6
2022-10-13T01:36:03.752Z,49.6
2022-10-13T01:37:03.737Z,49.7
2022-10-13T01:38:03.743Z,49.6
2022-10-13T01:39:03.747Z,49.7
2022-10-13T01:40:03.719Z,49.7
2022-10-13T01:41:03.730Z,49.7
2022-10-13T01:42:03.729Z,49.7
2022-10-13T01:43:03.735Z,49.7
2022-10-13T01:44:03.741Z,49.7
2022-10-13T01:45:03.728Z,49.7
2022-10-13T01:46:03.721Z,49.7
2022-10-13T01:47:42.777Z,49.7
2022-10-13T01:48:03.732Z,50.3
2022-10-13T01:49:03.741Z,49.8
2022-10-13T01:50:03.723Z,49.7
2022-10-13T01:51:03.737Z,49.7
2022-10-13T01:52:03.735Z,49.7
2022-10-13T01:53:03.744Z,49.7
2022-10-13T01:54:03.853Z,49.7
2022-10-13T01:55:03.724Z,49.7
2022-10-13T01:56:03.728Z,49.7
2022-10-13T01:57:03.736Z,49.7
2022-10-13T01:58:03.756Z,49.7
2022-10-13T01:59:03.742Z,49.7
2022-10-13T02:00:03.730Z,49.7
2022-10-13T02:01:03.780Z,49.7
2022-10-13T02:02:03.730Z,49.8
2022-10-13T02:03:03.733Z,49.7
2022-10-13T02:04:03.743Z,49.8
2022-10-13T02:05:03.731Z,49.7
2022-10-13T02:06:03.757Z,49.7
2022-10-13T02:07:03.743Z,49.7
2022-10-13T02:08:03.740Z,49.8
2022-10-13T02:09:03.739Z,49.7
2022-10-13T02:10:03.736Z,49.8
2022-10-13T02:11:03.743Z,49.7
2022-10-13T02:12:03.739Z,49.8
2022-10-13T02:13:03.734Z,49.7
2022-10-13T02:14:03.749Z,49.8
2022-10-13T02:15:03.739Z,49.8
2022-10-13T02:16:03.738Z,49.8
2022-10-13T02:17:03.744Z,49.8
2022-10-13T02:18:03.771Z,49.8
2022-10-13T02:19:03.772Z,49.8
2022-10-13T02:20:03.755Z,49.8
2022-10-13T02:21:03.736Z,49.8
2022-10-13T02:22:04.124Z,49.8
2022-10-13T02:23:03.735Z,49.8
2022-10-13T02:24:03.745Z,49.8
2022-10-13T02:25:03.742Z,49.8
2022-10-13T02:26:03.749Z,49.8
2022-10-13T02:27:03.728Z,49.8
2022-10-13T02:28:03.746Z,49.8
2022-10-13T02:29:03.739Z,49.8
2022-10-13T02:30:03.773Z,49.8
2022-10-13T02:31:03.750Z,49.8
2022-10-13T02:32:03.745Z,49.8
2022-10-13T02:33:03.748Z,49.8
2022-10-13T02:34:03.745Z,49.9
2022-10-13T02:35:03.754Z,49.9
2022-10-13T02:36:03.756Z,49.9
2022-10-13T02:37:03.758Z,49.8
2022-10-13T02:38:03.746Z,49.9
2022-10-13T02:39:03.747Z,49.8
2022-10-13T02:40:04.177Z,49.9
2022-10-13T02:41:03.868Z,49.8
2022-10-13T02:42:03.849Z,49.9
2022-10-13T02:43:03.841Z,49.9
2022-10-13T02:44:03.869Z,49.9
2022-10-13T02:45:03.860Z,49.9
2022-10-13T02:46:03.878Z,49.9
2022-10-13T02:47:03.869Z,49.9
2022-10-13T02:48:03.846Z,49.9
2022-10-13T02:49:03.872Z,49.9
2022-10-13T02:50:03.771Z,49.9
2022-10-13T02:51:03.872Z,49.9
2022-10-13T02:52:03.776Z,49.9
2022-10-13T02:53:04.146Z,49.9
2022-10-13T02:54:03.747Z,49.9
2022-10-13T02:55:03.756Z,49.9
2022-10-13T02:56:03.742Z,49.9
2022-10-13T02:57:03.763Z,49.9
2022-10-13T02:58:04.064Z,49.9
2022-10-13T02:59:03.748Z,49.9
2022-10-13T03:00:03.749Z,50.0
2022-10-13T03:01:03.797Z,50.0
2022-10-13T03:02:03.755Z,50.0
2022-10-13T03:03:03.859Z,50.0
2022-10-13T03:05:53.979Z,51.3
2022-10-13T03:06:03.645Z,51.0
2022-10-13T03:07:03.655Z,50.2
2022-10-13T03:08:03.656Z,50.1
2022-10-13T03:09:03.653Z,50.1
2022-10-13T03:10:03.661Z,50.0
2022-10-13T03:11:03.652Z,50.0
2022-10-13T03:12:03.683Z,50.0
2022-10-13T03:13:03.659Z,50.0
2022-10-13T03:14:03.673Z,50.0
2022-10-13T03:15:03.652Z,50.0
2022-10-13T03:16:03.648Z,50.0
2022-10-13T03:17:03.650Z,50.0
2022-10-13T03:18:03.651Z,50.0
2022-10-13T03:19:03.705Z,50.0
2022-10-13T03:20:03.679Z,50.0
2022-10-13T03:21:03.719Z,50.0
2022-10-13T03:22:03.655Z,50.0
2022-10-13T03:23:03.649Z,50.0
2022-10-13T03:24:03.646Z,50.0
2022-10-13T03:25:03.644Z,50.0
2022-10-13T03:26:03.652Z,50.0
2022-10-13T03:27:03.655Z,50.0
2022-10-13T03:28:03.663Z,50.0
2022-10-13T03:29:03.641Z,50.0
2022-10-13T03:30:03.654Z,50.0
2022-10-13T03:31:03.656Z,50.0
2022-10-13T03:32:03.655Z,50.0
2022-10-13T03:33:03.667Z,50.0
2022-10-13T03:34:03.663Z,50.0
2022-10-13T03:35:03.651Z,50.0
2022-10-13T03:36:03.673Z,50.0
2022-10-13T03:37:03.655Z,50.0
2022-10-13T03:38:03.660Z,50.0
2022-10-13T03:39:03.644Z,50.0
2022-10-13T03:40:03.664Z,50.0
2022-10-13T03:41:03.652Z,50.0
2022-10-13T03:42:03.662Z,50.0
2022-10-13T03:43:03.655Z,50.0
2022-10-13T03:44:03.657Z,50.1
2022-10-13T03:45:03.644Z,50.0
2022-10-13T03:46:03.676Z,50.1
2022-10-13T03:47:03.678Z,50.0
2022-10-13T03:48:03.665Z,50.1
2022-10-13T03:49:03.663Z,50.0
2022-10-13T03:50:03.657Z,50.0
2022-10-13T03:51:03.654Z,50.1
2022-10-13T03:53:34.551Z,51.4
2022-10-13T03:54:04.307Z,50.4
2022-10-13T03:55:04.260Z,50.3
2022-10-13T03:56:04.285Z,50.2
2022-10-13T03:57:04.308Z,50.1
2022-10-13T03:58:04.285Z,50.1
2022-10-13T03:59:04.280Z,50.1
2022-10-13T04:00:04.310Z,50.2
2022-10-13T04:01:04.280Z,50.2
2022-10-13T04:02:04.338Z,50.2
2022-10-13T04:03:04.301Z,50.2
2022-10-13T04:04:04.283Z,50.2
2022-10-13T04:05:04.279Z,50.1
2022-10-13T04:06:04.298Z,50.1
2022-10-13T04:07:04.281Z,50.1
2022-10-13T04:08:04.292Z,50.0
2022-10-13T04:09:04.309Z,49.9
2022-10-13T04:10:06.055Z,49.9
2022-10-13T04:11:04.294Z,49.9
2022-10-13T04:12:04.277Z,49.8
2022-10-13T04:13:04.280Z,49.8
2022-10-13T04:14:04.284Z,49.7
2022-10-13T04:15:04.293Z,49.7
2022-10-13T04:16:04.286Z,49.7
2022-10-13T04:17:04.274Z,49.7
2022-10-13T04:18:04.291Z,49.7
2022-10-13T04:19:04.298Z,49.8
2022-10-13T04:20:06.348Z,49.8
2022-10-13T04:21:05.734Z,49.8
2022-10-13T04:22:04.715Z,49.8
2022-10-13T04:23:05.112Z,49.8
2022-10-13T04:24:05.334Z,49.8
2022-10-13T04:25:04.299Z,49.8
2022-10-13T04:26:04.303Z,49.8
2022-10-13T04:27:04.291Z,49.8
2022-10-13T04:28:04.311Z,49.8
2022-10-13T04:29:04.286Z,49.8
2022-10-13T04:30:04.285Z,49.7
2022-10-13T04:31:04.279Z,49.8
2022-10-13T04:32:04.347Z,49.7
2022-10-13T04:33:04.280Z,49.7
2022-10-13T04:34:04.288Z,49.7
2022-10-13T04:35:04.289Z,49.7
2022-10-13T04:36:04.297Z,49.7
2022-10-13T04:37:04.295Z,49.6
2022-10-13T04:38:04.292Z,49.6
2022-10-13T04:39:04.285Z,49.6
2022-10-13T04:41:54.469Z,51.0
2022-10-13T04:42:04.411Z,50.4
2022-10-13T04:43:04.181Z,49.8
2022-10-13T04:44:04.193Z,49.7
2022-10-13T04:45:04.184Z,49.6
2022-10-13T04:46:04.190Z,49.6
2022-10-13T04:47:04.182Z,49.6
2022-10-13T04:48:04.193Z,49.5
2022-10-13T04:49:04.184Z,49.5
2022-10-13T04:50:04.191Z,49.6
2022-10-13T04:51:04.194Z,49.5
2022-10-13T04:52:04.207Z,49.5
2022-10-13T04:53:04.209Z,49.5
2022-10-13T04:54:04.297Z,49.5
2022-10-13T04:55:04.183Z,49.5
2022-10-13T04:56:04.199Z,49.5
2022-10-13T04:57:04.207Z,49.5
2022-10-13T04:58:04.201Z,49.5
2022-10-13T04:59:04.185Z,49.5
2022-10-13T05:00:04.216Z,49.4
2022-10-13T05:01:04.269Z,49.4
2022-10-13T05:02:04.200Z,49.4
2022-10-13T05:03:04.190Z,49.4
2022-10-13T05:04:04.232Z,49.4
2022-10-13T05:05:04.186Z,49.4
2022-10-13T05:06:04.200Z,49.4
2022-10-13T05:07:17.554Z,49.4
2022-10-13T05:08:04.207Z,49.5
2022-10-13T05:09:04.189Z,49.4
2022-10-13T05:10:04.197Z,49.4
2022-10-13T05:11:04.196Z,49.4
2022-10-13T05:12:04.190Z,49.4
2022-10-13T05:13:04.208Z,49.4
2022-10-13T05:14:04.188Z,49.3
2022-10-13T05:15:04.192Z,49.4
2022-10-13T05:16:04.193Z,49.4
2022-10-13T05:17:04.204Z,49.3
2022-10-13T05:18:04.196Z,49.4
2022-10-13T05:19:04.217Z,49.3
2022-10-13T05:20:04.191Z,49.3
2022-10-13T05:21:04.192Z,49.3
2022-10-13T05:22:04.198Z,49.3
2022-10-13T05:23:04.205Z,49.3
2022-10-13T05:24:04.242Z,49.3
2022-10-13T05:25:04.376Z,49.3
2022-10-13T05:26:04.208Z,49.3
2022-10-13T05:27:04.240Z,49.3
2022-10-13T05:28:04.229Z,49.3
2022-10-13T05:30:42.660Z,50.6
2022-10-13T05:31:06.587Z,49.8
2022-10-13T05:32:05.397Z,49.5
2022-10-13T05:33:07.659Z,49.4
2022-10-13T05:34:04.438Z,49.4
2022-10-13T05:35:06.502Z,49.3
2022-10-13T05:36:04.014Z,49.3
2022-10-13T05:37:04.000Z,49.3
2022-10-13T05:38:04.014Z,49.3
2022-10-13T05:39:04.007Z,49.3
2022-10-13T05:40:04.013Z,49.3
2022-10-13T05:41:04.004Z,49.3
2022-10-13T05:42:04.009Z,49.2
2022-10-13T05:43:04.002Z,49.2
2022-10-13T05:44:04.011Z,49.3
2022-10-13T05:45:04.005Z,49.2
2022-10-13T05:46:04.024Z,49.2
2022-10-13T05:47:07.459Z,49.2
2022-10-13T05:48:04.462Z,49.2
2022-10-13T05:49:04.008Z,49.2
2022-10-13T05:50:04.018Z,49.2
2022-10-13T05:51:04.012Z,49.2
2022-10-13T05:52:04.029Z,49.2
2022-10-13T05:53:04.070Z,49.2
2022-10-13T05:54:04.084Z,49.2
2022-10-13T05:55:04.008Z,49.2
2022-10-13T05:56:04.098Z,49.2
2022-10-13T05:57:04.029Z,49.2
2022-10-13T05:58:04.016Z,49.2
2022-10-13T05:59:04.013Z,49.1
2022-10-13T06:00:04.017Z,49.2
2022-10-13T06:01:04.012Z,49.2
2022-10-13T06:02:04.041Z,49.2
2022-10-13T06:03:04.082Z,49.1
2022-10-13T06:04:04.009Z,49.1
2022-10-13T06:05:04.015Z,49.1
2022-10-13T06:06:04.026Z,49.1
2022-10-13T06:07:04.027Z,49.1
2022-10-13T06:08:04.027Z,49.1
2022-10-13T06:09:04.021Z,49.1
2022-10-13T06:10:04.017Z,49.1
2022-10-13T06:11:10.708Z,49.3
2022-10-13T06:12:04.432Z,49.1
2022-10-13T06:13:11.177Z,49.3
2022-10-13T06:14:03.889Z,49.1
2022-10-13T06:15:03.900Z,49.1
2022-10-13T06:16:03.882Z,49.1
2022-10-13T06:17:03.885Z,49.1
2022-10-13T06:18:03.898Z,49.1
2022-10-13T06:19:03.884Z,49.1
2022-10-13T06:20:03.895Z,49.0
2022-10-13T06:21:03.889Z,49.1
2022-10-13T06:22:04.417Z,49.1
2022-10-13T06:23:03.875Z,49.0
2022-10-13T06:24:03.945Z,49.1
2022-10-13T06:25:04.150Z,49.1
2022-10-13T06:26:03.886Z,49.1
2022-10-13T06:27:03.891Z,49.0
2022-10-13T06:28:03.883Z,49.0
2022-10-13T06:29:03.928Z,49.0
2022-10-13T06:30:03.887Z,49.0
2022-10-13T06:31:03.879Z,49.0
2022-10-13T06:32:03.886Z,49.0
2022-10-13T06:33:03.893Z,49.0
2022-10-13T06:34:03.896Z,49.0
2022-10-13T06:35:03.890Z,49.0
2022-10-13T06:36:03.882Z,49.0
2022-10-13T06:37:03.879Z,49.0
2022-10-13T06:38:03.884Z,49.0
2022-10-13T06:39:03.882Z,49.0
2022-10-13T06:40:03.888Z,49.0
2022-10-13T06:41:03.888Z,49.0
2022-10-13T06:42:04.520Z,49.0
2022-10-13T06:43:03.884Z,49.0
2022-10-13T06:44:03.904Z,49.0
2022-10-13T06:45:03.881Z,49.0
2022-10-13T06:46:04.130Z,49.0
2022-10-13T06:47:03.889Z,49.0
2022-10-13T06:48:03.894Z,49.0
2022-10-13T06:49:03.889Z,49.0
2022-10-13T06:50:03.888Z,48.9
2022-10-13T06:51:03.885Z,49.0
2022-10-13T06:52:03.892Z,49.0
2022-10-13T06:53:03.907Z,48.9
2022-10-13T06:54:03.898Z,48.9
2022-10-13T06:55:03.885Z,49.0
2022-10-13T06:56:03.942Z,49.0
2022-10-13T06:57:03.889Z,49.0
2022-10-13T06:58:03.898Z,49.0
2022-10-13T06:59:03.896Z,48.9
2022-10-13T07:00:03.917Z,49.0
2022-10-13T07:01:03.957Z,49.0
2022-10-13T07:02:03.890Z,48.9
2022-10-13T07:03:04.017Z,48.9
2022-10-13T07:04:03.896Z,49.0
2022-10-13T07:05:03.911Z,48.9
2022-10-13T07:06:03.893Z,48.9
2022-10-13T07:07:03.901Z,48.9
2022-10-13T07:08:03.887Z,48.9
2022-10-13T07:09:03.905Z,48.9
2022-10-13T07:10:03.902Z,48.9
2022-10-13T07:11:03.890Z,48.9
2022-10-13T07:12:03.897Z,48.9
2022-10-13T07:13:03.891Z,48.9
2022-10-13T07:14:03.911Z,48.9
2022-10-13T07:15:03.904Z,48.9
2022-10-13T07:16:03.898Z,48.9
2022-10-13T07:17:03.904Z,48.9
2022-10-13T07:18:03.904Z,48.9
2022-10-13T07:19:03.916Z,48.9
2022-10-13T07:20:07.247Z,48.9
2022-10-13T07:21:03.905Z,48.9
2022-10-13T07:22:03.904Z,48.9
2022-10-13T07:23:03.893Z,48.9
2022-10-13T07:24:03.903Z,48.8
2022-10-13T07:25:03.902Z,48.9
2022-10-13T07:26:03.901Z,48.9
2022-10-13T07:27:07.595Z,48.9
2022-10-13T07:28:03.900Z,48.8
2022-10-13T07:29:03.899Z,48.8
2022-10-13T07:30:03.910Z,48.8
2022-10-13T07:31:03.900Z,48.8
2022-10-13T07:32:10.606Z,49.0
2022-10-13T07:33:10.997Z,49.0
2022-10-13T07:34:03.735Z,48.9
2022-10-13T07:35:03.733Z,48.9
2022-10-13T07:36:03.750Z,48.8
2022-10-13T07:37:03.733Z,48.8
2022-10-13T07:38:05.101Z,48.8
2022-10-13T07:39:04.309Z,48.8
2022-10-13T07:40:03.734Z,48.8
2022-10-13T07:41:04.667Z,48.8
2022-10-13T07:42:03.743Z,48.8
2022-10-13T07:43:11.160Z,49.0
2022-10-13T07:44:04.173Z,48.8
2022-10-13T07:45:04.207Z,48.8
2022-10-13T07:46:04.237Z,48.8
2022-10-13T07:47:04.175Z,48.8
2022-10-13T07:48:04.182Z,48.8
2022-10-13T07:49:04.168Z,48.8
2022-10-13T07:50:04.214Z,48.8
2022-10-13T07:51:04.469Z,48.8
2022-10-13T07:52:04.196Z,48.8
2022-10-13T07:53:04.178Z,48.8
2022-10-13T07:54:04.188Z,48.8
2022-10-13T07:55:04.187Z,48.8
2022-10-13T07:56:04.198Z,49.0
2022-10-13T07:57:04.188Z,48.8
2022-10-13T07:58:04.205Z,48.7
2022-10-13T07:59:04.172Z,48.6
2022-10-13T08:00:04.218Z,48.7
2022-10-13T08:01:04.231Z,48.7
2022-10-13T08:02:04.187Z,48.8
2022-10-13T08:03:04.204Z,48.8
2022-10-13T08:04:04.188Z,49.3
2022-10-13T08:05:04.175Z,49.3
2022-10-13T08:06:04.193Z,50.4
2022-10-13T08:07:04.182Z,50.4
2022-10-13T08:08:04.182Z,50.8
2022-10-13T08:09:04.180Z,51.1
2022-10-13T08:10:04.194Z,51.4
2022-10-13T08:11:04.193Z,51.5
2022-10-13T08:12:04.187Z,51.6
2022-10-13T08:13:04.214Z,51.4
2022-10-13T08:14:04.199Z,51.4
2022-10-13T08:15:06.289Z,51.4
2022-10-13T08:16:04.213Z,51.5
2022-10-13T08:17:04.230Z,51.4
2022-10-13T08:18:04.197Z,51.5
2022-10-13T08:19:04.208Z,51.5
2022-10-13T08:20:04.205Z,51.4
2022-10-13T08:21:33.214Z,51.5
2022-10-13T08:22:07.818Z,51.8
2022-10-13T08:23:04.222Z,51.6
2022-10-13T08:24:04.190Z,51.7
2022-10-13T08:25:04.186Z,51.7
2022-10-13T08:26:04.190Z,51.6
2022-10-13T08:27:04.196Z,51.6
2022-10-13T08:28:04.230Z,51.6
2022-10-13T08:29:21.398Z,51.6
2022-10-13T08:30:04.368Z,51.6
2022-10-13T08:31:04.266Z,51.5
2022-10-13T08:32:04.191Z,51.4
2022-10-13T08:33:04.244Z,51.4
2022-10-13T08:34:04.491Z,51.4
2022-10-13T08:35:04.379Z,51.6
2022-10-13T08:36:05.551Z,51.5
2022-10-13T08:37:04.189Z,51.6
2022-10-13T08:38:04.225Z,51.5
2022-10-13T08:39:04.202Z,51.6
2022-10-13T08:40:04.196Z,51.6
2022-10-13T08:41:04.212Z,51.6
2022-10-13T08:43:13.060Z,51.6
2022-10-13T08:43:17.006Z,53.6
2022-10-13T08:44:47.651Z,51.8
2022-10-13T08:45:39.316Z,53.6
2022-10-13T08:46:04.249Z,52.4
2022-10-13T08:47:04.217Z,51.9
2022-10-13T08:48:04.202Z,51.8
2022-10-13T08:49:04.205Z,51.7
2022-10-13T08:50:04.204Z,51.7
2022-10-13T08:51:04.205Z,51.7
2022-10-13T08:52:04.296Z,51.6
2022-10-13T08:53:04.273Z,51.6
2022-10-13T08:54:04.233Z,51.6
2022-10-13T08:55:05.094Z,51.6
2022-10-13T08:56:04.210Z,51.5
2022-10-13T08:57:04.210Z,51.6
2022-10-13T08:58:04.224Z,51.6
2022-10-13T08:59:04.260Z,51.5
2022-10-13T09:00:04.309Z,51.4
2022-10-13T09:01:04.194Z,51.3
2022-10-13T09:02:04.300Z,51.2
2022-10-13T09:03:04.198Z,51.2
2022-10-13T09:04:04.218Z,51.1
2022-10-13T09:05:04.207Z,51.1
2022-10-13T09:06:04.236Z,51.0
2022-10-13T09:07:05.131Z,50.9
2022-10-13T09:08:04.270Z,50.9
2022-10-13T09:09:04.204Z,50.8
2022-10-13T09:10:04.234Z,50.8
2022-10-13T09:11:04.204Z,50.8
2022-10-13T09:12:04.194Z,50.7
2022-10-13T09:13:04.200Z,50.7
2022-10-13T09:14:04.200Z,50.7
2022-10-13T09:15:04.208Z,50.7
2022-10-13T09:16:04.232Z,50.8
2022-10-13T09:17:04.306Z,50.9
2022-10-13T09:18:04.264Z,51.0
2022-10-13T09:19:04.200Z,51.1
2022-10-13T09:20:04.210Z,51.2
2022-10-13T09:21:04.204Z,51.2
2022-10-13T09:22:04.220Z,51.3
2022-10-13T09:23:04.228Z,51.3
2022-10-13T09:24:04.216Z,51.3
2022-10-13T09:25:04.205Z,51.3
2022-10-13T09:26:04.211Z,51.2
2022-10-13T09:27:04.245Z,51.2
2022-10-13T09:28:04.281Z,51.1
2022-10-13T09:29:04.203Z,51.1
2022-10-13T09:30:04.223Z,51.1
2022-10-13T09:31:04.227Z,51.1
2022-10-13T09:32:04.255Z,51.1
2022-10-13T09:33:04.224Z,51.1
2022-10-13T09:34:04.216Z,51.0
2022-10-13T09:35:04.225Z,51.0
2022-10-13T09:36:05.164Z,50.9
2022-10-13T09:37:04.211Z,50.9
2022-10-13T09:38:04.276Z,50.9
2022-10-13T09:39:04.226Z,50.8
2022-10-13T09:40:04.371Z,50.8
2022-10-13T09:41:04.889Z,50.8
2022-10-13T09:42:04.231Z,50.8
2022-10-13T09:43:04.247Z,50.8
2022-10-13T09:44:04.210Z,50.8
2022-10-13T09:45:04.218Z,50.8
2022-10-13T09:46:04.226Z,50.8
2022-10-13T09:47:04.229Z,50.8
2022-10-13T09:48:04.283Z,50.7
2022-10-13T09:50:21.147Z,50.8
2022-10-13T09:50:25.139Z,53.1
2022-10-13T09:51:04.219Z,51.2
2022-10-13T09:52:04.227Z,51.1
2022-10-13T09:53:05.174Z,51.0
2022-10-13T09:54:04.218Z,51.0
2022-10-13T09:55:04.224Z,51.0
2022-10-13T09:56:04.244Z,50.9
2022-10-13T09:57:04.225Z,50.9
2022-10-13T09:58:04.248Z,50.9
2022-10-13T09:59:04.262Z,50.8
2022-10-13T10:00:04.235Z,50.9
2022-10-13T10:01:04.227Z,50.9
2022-10-13T10:02:04.232Z,50.8
2022-10-13T10:03:04.229Z,50.8
2022-10-13T10:04:04.401Z,50.8
2022-10-13T10:05:04.222Z,50.7
2022-10-13T10:06:04.318Z,50.8
2022-10-13T10:07:04.224Z,50.8
2022-10-13T10:08:04.249Z,50.8
2022-10-13T10:09:05.016Z,50.8
2022-10-13T10:10:04.245Z,50.8
2022-10-13T10:11:04.216Z,50.9
2022-10-13T10:12:04.219Z,50.9
2022-10-13T10:13:04.217Z,50.8
2022-10-13T10:14:04.230Z,50.8
2022-10-13T10:15:04.222Z,50.8
2022-10-13T10:16:04.213Z,50.9
2022-10-13T10:17:04.227Z,50.7
2022-10-13T10:18:04.240Z,50.5
2022-10-13T10:19:04.230Z,50.3
2022-10-13T10:20:04.227Z,50.4
2022-10-13T10:21:04.236Z,50.4
2022-10-13T10:22:04.268Z,50.4
2022-10-13T10:23:05.406Z,50.3
2022-10-13T10:24:04.236Z,50.3
2022-10-13T10:25:04.239Z,50.3
2022-10-13T10:26:04.236Z,50.4
2022-10-13T10:27:04.238Z,50.4
2022-10-13T10:28:04.243Z,50.4
2022-10-13T10:29:04.282Z,50.4
2022-10-13T10:30:04.220Z,50.3
2022-10-13T10:31:04.231Z,50.3
2022-10-13T10:32:04.222Z,50.4
2022-10-13T10:33:04.230Z,50.3
2022-10-13T10:34:04.238Z,50.4
2022-10-13T10:35:04.238Z,50.4
2022-10-13T10:36:04.243Z,50.4
2022-10-13T10:37:04.235Z,50.5
2022-10-13T10:38:04.416Z,50.4
2022-10-13T10:39:05.381Z,50.5
2022-10-13T10:40:04.242Z,50.5
2022-10-13T10:41:04.249Z,50.6
2022-10-13T10:42:04.244Z,50.6
2022-10-13T10:43:04.245Z,50.6
2022-10-13T10:44:04.231Z,50.6
2022-10-13T10:45:04.256Z,50.6
2022-10-13T10:46:04.241Z,50.5
2022-10-13T10:47:04.234Z,50.6
2022-10-13T10:48:04.258Z,50.5
2022-10-13T10:49:04.282Z,50.5
2022-10-13T10:50:04.249Z,50.4
2022-10-13T10:51:04.263Z,50.3
2022-10-13T10:52:04.231Z,50.3
2022-10-13T10:53:04.245Z,50.2
2022-10-13T10:54:04.275Z,50.2
2022-10-13T10:55:04.246Z,50.2
2022-10-13T10:56:04.227Z,50.2
2022-10-13T10:57:04.244Z,50.2
2022-10-13T10:58:04.227Z,50.2
2022-10-13T10:59:04.236Z,50.1
2022-10-13T11:00:04.254Z,50.1
2022-10-13T11:01:04.259Z,50.1
2022-10-13T11:02:04.243Z,50.1
2022-10-13T11:03:04.236Z,50.0
2022-10-13T11:04:04.267Z,50.0
2022-10-13T11:05:06.316Z,50.0
2022-10-13T11:06:04.251Z,50.0
2022-10-13T11:07:04.262Z,50.1
2022-10-13T11:08:04.240Z,50.0
2022-10-13T11:09:04.251Z,50.0
2022-10-13T11:10:04.254Z,50.0
2022-10-13T11:11:04.239Z,50.0
2022-10-13T11:12:04.249Z,50.0
2022-10-13T11:13:04.260Z,50.1
2022-10-13T11:14:04.270Z,50.0
2022-10-13T11:15:04.263Z,50.0
2022-10-13T11:16:04.246Z,50.1
2022-10-13T11:17:04.250Z,49.9
2022-10-13T11:18:04.258Z,49.9
2022-10-13T11:19:04.241Z,49.9
2022-10-13T11:20:04.249Z,49.7
2022-10-13T11:21:49.227Z,49.7
2022-10-13T11:22:04.485Z,50.7
2022-10-13T11:23:04.265Z,49.9
2022-10-13T11:24:05.256Z,49.9
2022-10-13T11:25:04.346Z,49.9
2022-10-13T11:26:04.252Z,49.9
2022-10-13T11:27:04.247Z,49.8
2022-10-13T11:28:04.306Z,49.8
2022-10-13T11:29:04.284Z,49.9
2022-10-13T11:30:04.258Z,49.9
2022-10-13T11:31:04.311Z,49.9
2022-10-13T11:32:04.283Z,49.9
2022-10-13T11:33:04.260Z,49.9
2022-10-13T11:34:04.260Z,49.9
2022-10-13T11:35:04.442Z,49.9
2022-10-13T11:36:04.264Z,49.9
2022-10-13T11:37:04.363Z,49.9
2022-10-13T11:38:08.125Z,49.9
2022-10-13T11:39:04.364Z,49.9
2022-10-13T11:40:04.361Z,49.9
2022-10-13T11:41:04.360Z,49.8
2022-10-13T11:42:04.369Z,49.8
2022-10-13T11:43:05.259Z,49.8
2022-10-13T11:44:04.428Z,49.8
2022-10-13T11:45:04.412Z,49.8
2022-10-13T11:46:04.356Z,49.8
2022-10-13T11:47:04.365Z,49.8
2022-10-13T11:48:04.419Z,49.8
2022-10-13T11:49:04.380Z,49.7
2022-10-13T11:50:04.312Z,49.7
2022-10-13T11:51:04.398Z,49.6
2022-10-13T11:52:04.363Z,49.7
2022-10-13T11:53:04.358Z,49.7
2022-10-13T11:54:04.372Z,49.7
2022-10-13T11:55:04.415Z,49.7
2022-10-13T11:56:04.357Z,49.7
2022-10-13T11:57:04.396Z,49.7
2022-10-13T11:58:05.337Z,49.7
2022-10-13T11:59:04.605Z,49.7
2022-10-13T12:00:04.412Z,49.7
2022-10-13T12:01:04.387Z,49.6
2022-10-13T12:02:04.391Z,49.6
2022-10-13T12:03:04.544Z,49.6
2022-10-13T12:04:04.345Z,49.6
2022-10-13T12:05:04.353Z,49.6
2022-10-13T12:06:04.368Z,49.6
2022-10-13T12:07:04.475Z,49.5
2022-10-13T12:08:04.627Z,49.6
2022-10-13T12:09:04.329Z,49.6
2022-10-13T12:10:04.408Z,49.6
2022-10-13T12:11:05.276Z,49.5
2022-10-13T12:12:05.305Z,49.5
2022-10-13T12:13:04.376Z,49.5
2022-10-13T12:14:04.393Z,49.5
2022-10-13T12:15:06.929Z,49.5
2022-10-13T12:16:04.316Z,49.5
2022-10-13T12:17:04.290Z,49.5
2022-10-13T12:18:04.479Z,49.4
2022-10-13T12:19:04.391Z,49.4
2022-10-13T12:20:04.373Z,49.4
2022-10-13T12:21:04.358Z,49.4
2022-10-13T12:22:04.347Z,49.4
2022-10-13T12:23:04.263Z,49.4
2022-10-13T12:24:04.339Z,49.4
2022-10-13T12:25:04.398Z,49.4
2022-10-13T12:26:04.334Z,49.4
2022-10-13T12:27:04.333Z,49.4
2022-10-13T12:28:04.408Z,49.4
2022-10-13T12:29:05.267Z,49.5
2022-10-13T12:30:04.365Z,49.4
2022-10-13T12:32:19.645Z,49.4
2022-10-13T12:32:23.964Z,51.6
2022-10-13T12:33:04.402Z,49.7
2022-10-13T12:34:04.596Z,49.5
2022-10-13T12:35:04.382Z,49.5
2022-10-13T12:36:04.529Z,49.4
2022-10-13T12:37:04.320Z,49.4
2022-10-13T12:38:04.370Z,49.4
2022-10-13T12:39:04.343Z,49.3
2022-10-13T12:40:04.285Z,49.3
2022-10-13T12:41:04.306Z,49.3
2022-10-13T12:42:04.819Z,49.3
2022-10-13T12:43:04.342Z,49.2
2022-10-13T12:44:06.622Z,49.2
2022-10-13T12:45:04.305Z,49.3
2022-10-13T12:46:04.284Z,49.2
2022-10-13T12:47:04.363Z,49.2
2022-10-13T12:48:04.386Z,49.1
2022-10-13T12:49:04.355Z,49.1
2022-10-13T12:50:04.685Z,49.1
2022-10-13T12:51:04.350Z,49.1
2022-10-13T12:52:04.455Z,49.1
2022-10-13T12:53:04.924Z,49.1
2022-10-13T12:54:04.375Z,49.1
2022-10-13T12:55:04.415Z,49.2
2022-10-13T12:56:04.381Z,49.2
2022-10-13T12:57:04.400Z,49.1
2022-10-13T12:58:04.323Z,49.2
2022-10-13T12:59:04.356Z,49.2
2022-10-13T13:00:04.329Z,49.2
2022-10-13T13:01:04.980Z,49.1
2022-10-13T13:02:04.332Z,49.2
2022-10-13T13:03:04.326Z,49.4
2022-10-13T13:04:04.465Z,49.5
2022-10-13T13:05:04.282Z,49.5
2022-10-13T13:06:04.278Z,49.6
2022-10-13T13:07:06.278Z,49.6
2022-10-13T13:08:04.288Z,49.7
2022-10-13T13:09:04.314Z,49.7
2022-10-13T13:10:04.366Z,49.7
2022-10-13T13:11:04.517Z,49.7
2022-10-13T13:12:04.289Z,49.7
2022-10-13T13:13:04.374Z,49.6
2022-10-13T13:14:04.329Z,49.7
2022-10-13T13:15:04.305Z,49.7
2022-10-13T13:16:04.309Z,49.7
2022-10-13T13:17:04.318Z,49.7
2022-10-13T13:18:04.831Z,49.8
2022-10-13T13:19:05.885Z,49.8
2022-10-13T13:20:04.314Z,49.8
2022-10-13T13:21:04.370Z,49.8
2022-10-13T13:22:04.343Z,49.8
2022-10-13T13:23:04.315Z,49.9